Time;durP1;ratioP1;P1;durP2;ratioP2;P2;SDS_P1;SDS_P2;PMS_P1;PMS_P2;Temp;Humidity;BMP_temperature;BMP_pressure;BME280_temperature;BME280_humidity;BME280_pressure;Samples;Min_cycle;Max_cycle;Signal;HPM_P1;HPM_P2
2023/04/14 11:34:07;;;;;;;20.75;6.20;;;;;;;20.18;47.61;99846.34;4942430;27;4173894;-56
2023/04/14 11:36:35;;;;;;;15.98;6.75;;;;;;;20.97;45.59;99838.41;5081980;28;20523;-57
2023/04/14 11:39:03;;;;;;;15.32;6.22;;;;;;;21.54;44.20;99839.66;5068989;28;20024;-47
2023/04/14 11:41:31;;;;;;;15.57;5.60;;;;;;;22.00;43.07;99839.03;5088810;28;20108;-48
2023/04/14 11:43:59;;;;;;;14.30;5.38;;;;;;;22.27;42.86;99834.75;5088117;28;20045;-63
2023/04/14 11:46:26;;;;;;;13.77;5.10;;;;;;;22.55;42.11;99833.94;5089573;28;20029;-56
2023/04/14 11:48:56;;;;;;;16.10;4.65;;;;;;;22.75;41.21;99836.56;5088425;28;20130;-56
2023/04/14 11:51:32;;;;;;;15.98;5.38;;;;;;;22.93;41.24;99835.69;5083286;28;20090;-51
2023/04/14 11:54:00;;;;;;;18.20;4.43;;;;;;;23.03;41.10;99831.31;5088610;28;20054;-52
2023/04/14 11:56:27;;;;;;;13.38;4.45;;;;;;;23.11;40.71;99833.91;5089619;28;20065;-52
2023/04/14 11:59:05;;;;;;;15.52;4.85;;;;;;;23.22;40.75;99837.44;5090113;28;20036;-57
2023/04/14 12:01:33;;;;;;;16.58;5.43;;;;;;;23.27;40.64;99834.81;5089881;28;20035;-57
2023/04/14 12:04:02;;;;;;;15.10;4.93;;;;;;;23.35;40.44;99848.75;5089502;28;20031;-57
2023/04/14 12:06:37;;;;;;;14.55;5.25;;;;;;;23.38;40.42;99843.50;5089955;28;20055;-53
2023/04/14 12:09:09;;;;;;;14.23;4.20;;;;;;;23.42;40.08;99836.50;5090050;28;20092;-54
2023/04/14 12:11:38;;;;;;;12.85;4.47;;;;;;;23.45;40.39;99854.81;5089713;28;20036;-49
2023/04/14 12:14:06;;;;;;;13.80;5.00;;;;;;;23.48;40.59;99850.47;5088171;28;20031;-56
2023/04/14 12:16:34;;;;;;;15.00;6.30;;;;;;;23.47;40.04;99847.84;5089642;28;20115;-51
2023/04/14 12:19:02;;;;;;;17.42;5.88;;;;;;;23.54;40.33;99857.44;5089907;28;20043;-55
2023/04/14 12:21:30;;;;;;;11.88;4.97;;;;;;;23.52;40.22;99846.09;5071681;28;20423;-50
2023/04/14 12:23:59;;;;;;;13.27;5.20;;;;;;;23.58;39.85;99858.28;5089354;28;20025;-56
2023/04/14 12:26:27;;;;;;;13.43;5.10;;;;;;;23.60;39.78;99856.53;5087922;28;20074;-50
2023/04/14 12:28:57;;;;;;;14.48;5.32;;;;;;;23.62;39.57;99860.88;5089788;28;20047;-57
2023/04/14 12:31:29;;;;;;;15.02;5.22;;;;;;;23.65;39.62;99875.75;5089831;28;20039;-52
2023/04/14 12:34:06;;;;;;;13.48;5.70;;;;;;;23.64;39.42;99866.13;5088324;28;20048;-48
2023/04/14 12:36:34;;;;;;;15.63;5.70;;;;;;;23.59;39.82;99865.28;5089987;28;20137;-54
2023/04/14 12:39:06;;;;;;;19.85;6.15;;;;;;;23.61;39.90;99863.53;5087791;28;20115;-51
2023/04/14 12:41:39;;;;;;;15.00;5.57;;;;;;;23.64;39.80;99869.63;5088030;28;20086;-56
2023/04/14 12:44:16;;;;;;;22.05;5.68;;;;;;;23.63;39.89;99870.50;5082974;28;20016;-50
2023/04/14 12:46:49;;;;;;;20.55;6.13;;;;;;;23.62;40.09;99873.97;5075193;28;20421;-54
2023/04/14 12:49:36;;;;;;;23.40;6.43;;;;;;;23.65;39.87;99873.97;5071446;28;20496;-54
2023/04/14 12:52:06;;;;;;;18.52;5.95;;;;;;;23.67;40.05;99872.22;5070206;28;20028;-57
2023/04/14 12:54:53;;;;;;;17.10;6.65;;;;;;;23.68;39.91;99875.69;5074362;28;20036;-52
2023/04/14 12:57:21;;;;;;;15.80;5.78;;;;;;;23.70;39.45;99875.72;5071338;28;20028;-53
2023/04/14 12:59:50;;;;;;;13.45;5.32;;;;;;;23.68;39.68;99886.19;5071870;28;20037;-55
2023/04/14 13:02:19;;;;;;;13.70;5.10;;;;;;;23.64;39.88;99892.31;5074089;28;20040;-56
2023/04/14 13:04:46;;;;;;;16.08;5.20;;;;;;;23.62;40.20;99889.69;5069970;28;20477;-48
2023/04/14 13:07:15;;;;;;;17.08;5.32;;;;;;;23.67;39.87;99894.91;5074601;28;20062;-54
2023/04/14 13:09:43;;;;;;;12.48;5.28;;;;;;;23.70;39.92;99897.53;5070292;28;20028;-52
2023/04/14 13:12:11;;;;;;;16.17;5.13;;;;;;;23.68;39.97;99904.50;5072062;28;20028;-51
2023/04/14 13:14:39;;;;;;;14.32;4.90;;;;;;;23.72;40.01;99906.25;5070532;28;20557;-52
2023/04/14 13:17:07;;;;;;;13.77;5.00;;;;;;;23.75;40.02;99919.34;5070077;28;20531;-55
2023/04/14 13:19:36;;;;;;;10.02;3.70;;;;;;;23.77;39.40;99924.56;5073921;28;20024;-57
2023/04/14 13:22:04;;;;;;;9.98;4.10;;;;;;;23.80;39.40;99932.41;5070663;28;20028;-58
2023/04/14 13:24:33;;;;;;;8.50;3.25;;;;;;;23.78;39.73;99935.06;5069899;28;20509;-57
2023/04/14 13:27:01;;;;;;;15.85;3.63;;;;;;;23.81;39.72;99957.72;5073978;28;20021;-56
2023/04/14 13:29:30;;;;;;;8.77;3.58;;;;;;;23.81;39.40;99968.22;5072180;28;20029;-54
2023/04/14 13:31:58;;;;;;;11.93;3.60;;;;;;;23.78;39.71;99969.09;5069403;28;20021;-57
2023/04/14 13:34:27;;;;;;;13.52;4.22;;;;;;;23.79;39.25;99980.44;5074270;28;20029;-48
2023/04/14 13:36:56;;;;;;;10.93;4.43;;;;;;;23.78;39.67;99983.91;5074920;28;20474;-50
2023/04/14 13:39:25;;;;;;;8.63;3.70;;;;;;;23.75;39.20;99990.03;5074424;28;20028;-51
2023/04/14 13:41:53;;;;;;;11.20;3.88;;;;;;;23.70;39.42;99993.56;5074983;28;20024;-57
2023/04/14 13:44:22;;;;;;;13.20;4.68;;;;;;;23.74;39.31;100000.53;5074450;28;20108;-52
2023/04/14 13:46:52;;;;;;;10.32;3.88;;;;;;;23.74;39.36;100014.47;5074680;28;20025;-53
2023/04/14 13:49:21;;;;;;;10.93;3.28;;;;;;;23.70;39.43;100009.25;5074744;28;20028;-52
2023/04/14 13:51:49;;;;;;;11.10;3.42;;;;;;;23.68;39.55;100017.09;5074399;28;20035;-58
2023/04/14 13:54:18;;;;;;;12.00;4.50;;;;;;;23.66;39.40;100013.63;5074227;28;20393;-47
2023/04/14 13:56:46;;;;;;;10.95;3.83;;;;;;;23.66;39.30;100027.59;5072457;28;20021;-55
2023/04/14 13:59:16;;;;;;;12.18;2.88;;;;;;;23.66;39.20;100040.69;5074322;28;20111;-52
2023/04/14 14:01:44;;;;;;;8.25;2.95;;;;;;;23.63;39.24;100042.44;5074084;28;20032;-47
2023/04/14 14:04:12;;;;;;;16.73;3.20;;;;;;;23.68;39.11;100056.38;5073861;28;20123;-51
2023/04/14 14:06:40;;;;;;;10.32;3.20;;;;;;;23.63;38.99;100042.44;5074095;28;20032;-49
2023/04/14 14:09:09;;;;;;;9.93;2.70;;;;;;;23.66;38.92;100037.19;5074261;28;20035;-49
2023/04/14 14:11:40;;;;;;;11.98;3.22;;;;;;;23.64;38.91;100045.03;5073903;28;20052;-51
2023/04/14 14:14:09;;;;;;;9.18;3.22;;;;;;;23.61;39.01;100039.78;5073812;28;20039;-48
2023/04/14 14:16:38;;;;;;;11.43;2.97;;;;;;;23.63;39.29;100042.44;5074119;28;20094;-54
2023/04/14 14:19:08;;;;;;;10.93;3.30;;;;;;;23.66;39.02;100052.91;5073816;28;20051;-56
2023/04/14 14:21:37;;;;;;;9.93;3.45;;;;;;;23.70;38.54;100062.50;5073924;28;20024;-53
2023/04/14 14:24:06;;;;;;;10.40;3.67;;;;;;;23.71;38.88;100050.28;5073929;28;20115;-47
2023/04/14 14:26:34;;;;;;;9.35;3.40;;;;;;;23.65;39.04;100054.63;5074096;28;20099;-55
2023/04/14 14:29:03;;;;;;;10.27;3.72;;;;;;;23.67;38.60;100059.88;5073788;28;20024;-48
2023/04/14 14:31:32;;;;;;;8.43;3.28;;;;;;;23.65;38.51;100059.88;5073575;28;20393;-50
2023/04/14 14:34:00;;;;;;;10.13;3.63;;;;;;;23.65;38.83;100066.88;5073429;28;20072;-55
2023/04/14 14:36:29;;;;;;;10.10;4.60;;;;;;;23.63;38.93;100073.84;5072299;28;20481;-54
2023/04/14 14:38:58;;;;;;;12.60;4.63;;;;;;;23.64;38.61;100065.13;5073414;28;20585;-55
2023/04/14 14:41:26;;;;;;;11.80;4.63;;;;;;;23.66;38.44;100079.94;5073303;28;20032;-48
2023/04/14 14:43:55;;;;;;;15.15;5.45;;;;;;;23.64;38.73;100086.06;5073011;28;20059;-49
2023/04/14 14:46:23;;;;;;;12.80;5.00;;;;;;;23.63;38.72;100090.41;5072699;28;20095;-47
2023/04/14 14:48:52;;;;;;;9.15;4.50;;;;;;;23.64;39.04;100092.16;5072871;28;20360;-49
2023/04/14 14:51:21;;;;;;;9.88;3.78;;;;;;;23.67;38.93;100091.28;5073609;28;20132;-49
2023/04/14 14:53:49;;;;;;;8.63;3.63;;;;;;;23.73;38.89;100117.47;5055666;28;20039;-48
2023/04/14 14:56:18;;;;;;;10.80;3.97;;;;;;;23.74;38.98;100116.63;5073564;28;20117;-48
2023/04/14 14:58:46;;;;;;;9.75;4.03;;;;;;;23.79;38.39;100100.91;5073327;28;20482;-53
2023/04/14 15:01:15;;;;;;;7.10;3.47;;;;;;;23.75;38.71;100120.09;5073019;28;20116;-52
2023/04/14 15:03:44;;;;;;;7.68;3.25;;;;;;;23.81;38.34;100130.59;5073206;28;20069;-48
2023/04/14 15:06:13;;;;;;;8.88;3.20;;;;;;;23.80;38.37;100124.47;5074039;28;20059;-50
2023/04/14 15:08:42;;;;;;;9.32;3.60;;;;;;;23.86;38.52;100125.34;5072872;28;20029;-51
2023/04/14 15:11:11;;;;;;;8.75;3.13;;;;;;;23.90;38.03;100132.34;5073427;28;20037;-55
2023/04/14 15:13:39;;;;;;;8.15;3.05;;;;;;;23.85;38.07;100148.06;5073156;28;20481;-48
2023/04/14 15:16:08;;;;;;;8.80;3.20;;;;;;;24.30;37.48;100142.84;5073471;28;20040;-56
2023/04/14 15:18:37;;;;;;;9.43;3.00;;;;;;;24.85;36.21;100144.47;5072842;28;20024;-48
2023/04/14 15:21:05;;;;;;;6.72;2.80;;;;;;;24.36;37.39;100158.53;5072945;28;20056;-56
2023/04/14 15:23:35;;;;;;;10.95;3.53;;;;;;;24.12;37.47;100165.56;5073334;28;20064;-56
2023/04/14 15:26:04;;;;;;;10.05;3.47;;;;;;;23.97;37.88;100157.69;5072777;28;20060;-49
2023/04/14 15:28:33;;;;;;;9.73;4.22;;;;;;;23.83;38.13;100165.50;5072588;28;20436;-51
2023/04/14 15:31:01;;;;;;;8.48;3.38;;;;;;;23.89;38.03;100172.50;5072963;28;20115;-53
2023/04/14 15:33:30;;;;;;;9.77;3.53;;;;;;;23.85;38.53;100160.25;5072369;28;20136;-48
2023/04/14 15:35:59;;;;;;;9.40;3.80;;;;;;;23.88;38.41;100163.78;5072337;28;20074;-50
2023/04/14 15:38:27;;;;;;;8.20;3.80;;;;;;;23.86;38.20;100162.91;5073293;28;20027;-57
2023/04/14 15:40:56;;;;;;;8.20;3.20;;;;;;;23.88;38.34;100179.50;5073039;28;20033;-57
2023/04/14 15:43:26;;;;;;;7.38;3.33;;;;;;;23.78;38.71;100190.81;5072602;28;20448;-54
2023/04/14 15:45:55;;;;;;;7.72;3.60;;;;;;;23.74;38.50;100208.28;5071346;28;20047;-47
2023/04/14 15:48:23;;;;;;;8.82;2.83;;;;;;;23.73;38.83;100210.91;5073169;28;20059;-56
2023/04/14 15:50:52;;;;;;;6.55;2.65;;;;;;;23.76;38.44;100223.97;5072779;28;20371;-48
2023/04/14 15:53:21;;;;;;;8.18;3.10;;;;;;;23.76;38.47;100222.25;5072933;28;20020;-48
2023/04/14 15:55:50;;;;;;;9.82;4.18;;;;;;;23.74;38.85;100229.22;5072694;28;20017;-48
2023/04/14 15:58:19;;;;;;;7.35;2.85;;;;;;;23.70;38.74;100221.38;5072124;28;20028;-51
2023/04/14 16:00:48;;;;;;;5.78;2.67;;;;;;;23.75;38.71;100232.69;5072504;28;20255;-47
2023/04/14 16:03:18;;;;;;;7.20;3.28;;;;;;;23.73;38.54;100226.63;5072820;28;20025;-51
2023/04/14 16:05:46;;;;;;;7.15;2.78;;;;;;;23.80;38.65;100236.22;5072529;28;20471;-48
2023/04/14 16:08:15;;;;;;;8.27;2.95;;;;;;;23.77;38.35;100255.44;5072679;28;20486;-48
2023/04/14 16:10:44;;;;;;;8.73;2.72;;;;;;;23.78;38.70;100251.03;5072462;28;20028;-56
2023/04/14 16:13:13;;;;;;;5.63;2.20;;;;;;;23.66;38.72;100263.25;5072370;28;20028;-49
2023/04/14 16:15:42;;;;;;;8.27;2.60;;;;;;;23.67;38.48;100265.00;5072536;28;20021;-52
2023/04/14 16:18:10;;;;;;;6.72;2.70;;;;;;;23.80;38.22;100278.13;5072577;28;20020;-56
2023/04/14 16:20:39;;;;;;;6.03;2.33;;;;;;;23.79;38.16;100297.31;5076165;28;20025;-55
2023/04/14 16:23:08;;;;;;;6.28;2.50;;;;;;;23.71;38.65;100302.53;5076215;28;20028;-51
2023/04/14 16:25:36;;;;;;;5.63;2.15;;;;;;;23.74;38.75;100315.66;5075676;28;20414;-47
2023/04/14 16:28:05;;;;;;;7.43;2.63;;;;;;;23.67;38.65;100321.72;5076022;28;20024;-48
2023/04/14 16:30:34;;;;;;;5.75;2.03;;;;;;;23.68;38.61;100333.94;5076593;28;20567;-47
2023/04/14 16:33:03;;;;;;;10.07;3.28;;;;;;;23.69;38.64;100332.22;5075596;28;20498;-47
2023/04/14 16:35:31;;;;;;;8.07;3.08;;;;;;;23.70;38.22;100332.22;5076248;28;20024;-48
2023/04/14 16:38:00;;;;;;;5.72;2.92;;;;;;;23.71;38.11;100320.88;5074550;28;20451;-48
2023/04/14 16:40:29;;;;;;;6.55;2.72;;;;;;;23.67;38.50;100330.47;5075971;28;20082;-48
2023/04/14 16:42:58;;;;;;;9.73;3.05;;;;;;;23.65;38.71;100336.56;5075816;28;20079;-53
2023/04/14 16:45:27;;;;;;;8.00;2.90;;;;;;;23.65;38.57;100339.19;5075861;28;20024;-57
2023/04/14 16:47:56;;;;;;;8.60;3.25;;;;;;;23.64;38.40;100350.53;5074610;28;20485;-57
2023/04/14 16:50:25;;;;;;;9.63;3.97;;;;;;;23.70;38.53;100358.38;5075909;28;20082;-56
2023/04/14 16:52:53;;;;;;;7.43;3.03;;;;;;;23.63;38.50;100367.09;5075240;28;20060;-57
2023/04/14 16:55:22;;;;;;;5.75;2.53;;;;;;;23.62;38.17;100376.69;5074136;28;20025;-55
2023/04/14 16:57:50;;;;;;;7.85;2.35;;;;;;;23.59;38.36;100384.53;5074595;28;20029;-49
2023/04/14 17:00:20;;;;;;;9.65;4.00;;;;;;;23.59;38.75;100396.75;5075541;28;20025;-47
2023/04/14 17:02:48;;;;;;;11.35;3.63;;;;;;;23.61;38.55;100381.94;5075419;28;20033;-48
2023/04/14 17:05:16;;;;;;;10.20;3.38;;;;;;;23.61;38.61;100389.78;5074313;28;20028;-47
2023/04/14 17:07:46;;;;;;;9.02;3.75;;;;;;;23.62;38.25;100395.00;5075236;28;20032;-57
2023/04/14 17:10:16;;;;;;;9.70;3.85;;;;;;;23.66;38.43;100403.78;5075528;28;20123;-49
2023/04/14 17:12:43;;;;;;;8.75;3.78;;;;;;;23.66;38.38;100407.25;5075404;28;20031;-48
2023/04/14 17:15:11;;;;;;;9.13;3.63;;;;;;;23.64;38.73;100405.50;5075396;28;20099;-48
2023/04/14 17:17:41;;;;;;;11.07;3.15;;;;;;;23.62;38.35;100413.34;5073797;28;20024;-50
2023/04/14 17:20:11;;;;;;;9.55;3.25;;;;;;;23.63;38.57;100427.34;5075230;28;20466;-55
2023/04/14 17:22:40;;;;;;;15.20;2.90;;;;;;;23.63;38.44;100422.94;5075251;28;20024;-50
2023/04/14 17:25:09;;;;;;;14.10;3.38;;;;;;;23.66;38.27;100429.97;5074956;28;20044;-51
2023/04/14 17:27:38;;;;;;;8.23;2.67;;;;;;;23.63;38.52;100436.03;5073940;28;20036;-54
2023/04/14 17:30:08;;;;;;;10.20;2.80;;;;;;;23.61;38.29;100432.53;5074138;28;20351;-48
2023/04/14 17:32:37;;;;;;;6.95;3.25;;;;;;;23.63;37.99;100445.66;5073331;28;20048;-48
2023/04/14 17:35:06;;;;;;;10.75;3.10;;;;;;;23.62;38.35;100446.53;5075081;28;20315;-52
2023/04/14 17:37:36;;;;;;;15.70;6.95;;;;;;;23.54;38.27;100454.34;5075063;28;20109;-51
2023/04/14 17:40:04;;;;;;;14.35;5.95;;;;;;;23.58;38.52;100445.59;5074671;28;20048;-53
2023/04/14 17:42:33;;;;;;;11.18;6.25;;;;;;;23.62;38.45;100462.22;5074643;28;20389;-49
2023/04/14 17:45:02;;;;;;;12.02;5.00;;;;;;;23.56;38.53;100473.56;5074854;28;20029;-48
2023/04/14 17:47:36;;;;;;;10.60;4.97;;;;;;;23.58;38.49;100476.16;5074883;28;20044;-47
2023/04/14 17:50:05;;;;;;;9.70;4.63;;;;;;;23.61;38.23;100478.81;5074310;28;20021;-55
2023/04/14 17:52:34;;;;;;;10.98;5.65;;;;;;;23.63;38.29;100477.94;5073600;28;20051;-52
2023/04/14 17:55:03;;;;;;;21.73;10.48;;;;;;;23.62;38.35;100483.19;5073174;28;20024;-49
2023/04/14 17:57:32;;;;;;;14.43;8.38;;;;;;;23.59;38.24;100493.63;5074330;28;20036;-48
2023/04/14 18:00:02;;;;;;;17.45;7.97;;;;;;;23.52;38.02;100501.44;5074314;28;20074;-47
2023/04/14 18:02:33;;;;;;;19.50;12.73;;;;;;;23.52;38.29;100498.81;5074306;28;20024;-48
2023/04/14 18:05:02;;;;;;;18.40;13.25;;;;;;;23.53;38.35;100512.78;5074064;28;20029;-48
2023/04/14 18:07:31;;;;;;;19.45;12.23;;;;;;;23.55;37.94;100518.03;5074376;28;20122;-56
2023/04/14 18:09:59;;;;;;;19.80;12.23;;;;;;;23.60;37.98;100529.41;5074221;28;20017;-48
2023/04/14 18:12:29;;;;;;;23.73;11.15;;;;;;;23.56;38.12;100533.78;5073818;28;20606;-49
2023/04/14 18:14:57;;;;;;;64.38;49.58;;;;;;;23.56;37.94;100545.97;5072813;28;20036;-51
2023/04/14 18:17:26;;;;;;;47.42;35.75;;;;;;;23.59;38.26;100546.84;5073876;28;20472;-53
2023/04/14 18:19:57;;;;;;;45.05;31.65;;;;;;;23.59;38.40;100546.84;5072497;28;20032;-56
2023/04/14 18:22:26;;;;;;;38.28;29.60;;;;;;;23.59;38.30;100548.63;5073866;28;20024;-49
2023/04/14 18:24:55;;;;;;;39.28;28.60;;;;;;;23.64;38.02;100565.25;5073876;28;20126;-57
2023/04/14 18:27:22;;;;;;;31.20;25.15;;;;;;;23.64;38.25;100573.09;5071058;28;20126;-56
2023/04/14 18:29:51;;;;;;;31.27;23.88;;;;;;;23.62;38.63;100567.84;5070267;28;20021;-54
2023/04/14 18:32:19;;;;;;;28.83;21.67;;;;;;;23.63;38.71;100572.22;5072231;28;20052;-55
2023/04/14 18:34:46;;;;;;;29.38;19.83;;;;;;;23.67;38.32;100573.09;5072425;28;20105;-54
2023/04/14 18:37:14;;;;;;;28.33;19.00;;;;;;;23.67;38.69;100578.34;5073009;28;20477;-50
2023/04/14 18:39:42;;;;;;;25.65;17.65;;;;;;;23.66;38.59;100595.81;5052455;28;20033;-49
2023/04/14 18:42:11;;;;;;;21.25;16.80;;;;;;;23.69;38.39;100608.03;5072040;28;20028;-50
2023/04/14 18:44:38;;;;;;;22.98;15.85;;;;;;;23.69;38.81;100618.53;5071552;28;20107;-54
2023/04/14 18:47:06;;;;;;;19.98;14.55;;;;;;;23.69;38.65;100622.91;5072794;28;20035;-56
2023/04/14 18:49:34;;;;;;;21.33;14.18;;;;;;;23.74;38.67;100627.31;5066632;28;20025;-55
2023/04/14 18:52:01;;;;;;;21.85;14.40;;;;;;;23.75;38.85;100631.69;5072456;28;20121;-56
2023/04/14 18:54:29;;;;;;;22.33;13.77;;;;;;;23.73;38.73;100636.03;5071606;28;20028;-53
2023/04/14 18:56:57;;;;;;;17.35;12.18;;;;;;;23.79;38.59;100640.44;5071221;28;20389;-50
2023/04/14 18:59:26;;;;;;;17.33;11.98;;;;;;;23.81;38.64;100655.31;5069891;28;20442;-57
2023/04/14 19:01:53;;;;;;;16.42;11.40;;;;;;;23.85;38.47;100655.31;5072000;28;20477;-48
2023/04/14 19:04:20;;;;;;;18.60;12.45;;;;;;;23.88;38.61;100665.81;5072177;28;20032;-52
2023/04/14 19:06:48;;;;;;;19.85;12.10;;;;;;;23.93;38.83;100674.63;5072307;28;20029;-51
2023/04/14 19:09:15;;;;;;;17.23;10.90;;;;;;;23.97;38.82;100676.44;5065956;28;20021;-53
2023/04/14 19:11:44;;;;;;;15.80;10.30;;;;;;;24.01;38.32;100682.56;5072259;28;20028;-56
2023/04/14 19:14:12;;;;;;;15.98;10.27;;;;;;;24.04;38.32;100685.22;5072190;28;20033;-56
2023/04/14 19:16:39;;;;;;;14.15;9.13;;;;;;;24.04;38.23;100695.72;5072499;28;20538;-49
2023/04/14 19:19:07;;;;;;;11.82;9.05;;;;;;;24.05;38.30;100698.31;5070504;28;20382;-49
2023/04/14 19:21:35;;;;;;;12.80;8.65;;;;;;;24.10;38.33;100699.25;5072081;28;20448;-47
2023/04/14 19:24:03;;;;;;;14.05;8.63;;;;;;;24.13;38.29;100698.38;5072015;28;20527;-51
2023/04/14 19:26:33;;;;;;;14.35;8.30;;;;;;;24.15;38.41;100716.75;5072345;28;20029;-47
2023/04/14 19:29:00;;;;;;;14.98;7.97;;;;;;;24.19;38.36;100729.00;5100401;23;20069;-51
2023/04/14 19:31:28;;;;;;;15.13;8.93;;;;;;;24.19;38.08;100737.75;5031965;28;20029;-49
2023/04/14 19:33:57;;;;;;;12.23;7.80;;;;;;;24.22;38.20;100731.66;5017858;28;20033;-49
2023/04/14 19:36:25;;;;;;;15.95;7.93;;;;;;;24.26;38.35;100751.78;5009889;28;20079;-49
2023/04/14 19:38:53;;;;;;;17.70;7.82;;;;;;;24.31;37.89;100750.09;5024390;28;20029;-49
2023/04/14 19:41:20;;;;;;;10.35;6.78;;;;;;;24.36;38.23;100766.72;5021693;28;20479;-51
2023/04/14 19:43:47;;;;;;;9.70;6.47;;;;;;;24.40;38.04;100755.41;5023821;28;20117;-48
2023/04/14 19:46:16;;;;;;;10.48;6.43;;;;;;;24.42;38.05;100761.53;5023604;28;20030;-49
2023/04/14 19:48:44;;;;;;;10.18;5.80;;;;;;;24.45;37.93;100783.41;5024874;28;20498;-49
2023/04/14 19:51:11;;;;;;;14.30;6.15;;;;;;;24.41;37.71;100788.63;5026846;28;20046;-50
2023/04/14 19:53:39;;;;;;;11.18;5.53;;;;;;;24.44;37.66;100798.25;5024857;28;20033;-50
2023/04/14 19:56:06;;;;;;;10.88;5.75;;;;;;;24.40;38.04;100805.22;5031694;28;20026;-49
2023/04/14 19:58:33;;;;;;;10.98;5.50;;;;;;;24.40;37.84;100806.97;5010618;28;20026;-48
2023/04/14 20:01:00;;;;;;;10.45;4.38;;;;;;;24.44;37.80;100808.75;5029773;28;20033;-50
2023/04/14 20:03:28;;;;;;;9.50;4.93;;;;;;;24.46;37.78;100812.25;5027889;28;20079;-49
2023/04/14 20:05:57;;;;;;;6.63;4.10;;;;;;;24.49;37.61;100832.41;5027549;28;20101;-48
2023/04/14 20:08:26;;;;;;;9.27;4.10;;;;;;;24.49;37.34;100838.50;5030653;28;20494;-49
2023/04/14 20:10:54;;;;;;;11.15;4.35;;;;;;;24.48;37.40;100842.00;5028165;28;20032;-48
2023/04/14 20:13:25;;;;;;;8.57;4.18;;;;;;;24.49;37.40;100845.50;5007293;28;20025;-48
2023/04/14 20:15:52;;;;;;;9.45;4.05;;;;;;;24.48;37.33;100862.97;5027443;28;20105;-48
2023/04/14 20:18:21;;;;;;;9.50;3.65;;;;;;;24.47;37.35;100868.22;5026621;28;20092;-48
2023/04/14 20:20:49;;;;;;;6.13;3.40;;;;;;;24.48;37.31;100867.34;5024684;28;20054;-54
2023/04/14 20:23:18;;;;;;;6.35;3.70;;;;;;;24.50;37.09;100869.13;5031724;28;20017;-48
2023/04/14 20:25:47;;;;;;;7.25;3.47;;;;;;;24.47;37.46;100871.69;5028165;28;20036;-58
2023/04/14 20:28:15;;;;;;;5.93;3.13;;;;;;;24.49;37.23;100875.22;5023322;28;20026;-50
2023/04/14 20:30:45;;;;;;;7.60;3.40;;;;;;;24.50;36.99;100871.75;5024546;28;20042;-49
2023/04/14 20:33:13;;;;;;;7.75;3.17;;;;;;;24.49;37.23;100884.84;5027879;28;20116;-52
2023/04/14 20:35:42;;;;;;;4.43;2.60;;;;;;;24.51;37.50;100886.59;5026676;28;20103;-56
2023/04/14 20:38:11;;;;;;;5.22;3.20;;;;;;;24.54;37.15;100883.13;5009827;28;20468;-53
2023/04/14 20:40:39;;;;;;;8.23;3.33;;;;;;;24.52;37.29;100882.22;5027748;28;20065;-58
2023/04/14 20:43:06;;;;;;;5.63;2.80;;;;;;;24.53;36.95;100886.59;5029998;28;20471;-56
2023/04/14 20:45:35;;;;;;;5.65;3.00;;;;;;;24.48;36.96;100893.56;5024785;28;20827;-58
2023/04/14 20:48:02;;;;;;;7.07;3.03;;;;;;;24.46;37.00;100908.41;5009660;28;20171;-56
2023/04/14 20:50:30;;;;;;;7.07;3.00;;;;;;;24.49;36.97;100911.06;5027566;28;20390;-57
2023/04/14 20:52:59;;;;;;;6.93;3.55;;;;;;;24.46;37.00;100918.91;5027868;28;20033;-57
2023/04/14 20:55:26;;;;;;;8.40;3.85;;;;;;;24.45;37.13;100922.38;5026609;28;20461;-53
2023/04/14 20:57:54;;;;;;;6.07;3.00;;;;;;;24.46;37.08;100932.00;5030787;28;20025;-49
2023/04/14 21:00:22;;;;;;;9.23;4.10;;;;;;;24.48;37.23;100923.28;5026267;28;20032;-48
2023/04/14 21:02:50;;;;;;;5.63;3.15;;;;;;;24.41;37.22;100930.22;5026967;28;20034;-48
2023/04/14 21:05:20;;;;;;;4.68;3.05;;;;;;;24.38;37.13;100935.41;5015377;28;20052;-48
2023/04/14 21:07:50;;;;;;;5.53;2.97;;;;;;;24.38;37.21;100942.41;5015922;28;20463;-48
2023/04/14 21:10:18;;;;;;;9.00;3.58;;;;;;;24.35;37.11;100951.09;5015206;28;20026;-57
2023/04/14 21:12:47;;;;;;;4.40;2.63;;;;;;;24.33;37.18;100965.94;5015483;28;20117;-48
2023/04/14 21:15:16;;;;;;;5.20;2.50;;;;;;;24.27;37.44;100965.88;4997762;28;20081;-48
2023/04/14 21:17:44;;;;;;;5.10;2.90;;;;;;;24.25;37.70;100980.72;5014889;28;20541;-52
2023/04/14 21:20:13;;;;;;;5.18;2.65;;;;;;;24.25;37.54;100986.81;5015128;28;20033;-49
2023/04/14 21:22:42;;;;;;;4.45;2.50;;;;;;;24.27;37.28;100989.47;5015297;28;20044;-57
2023/04/14 21:25:11;;;;;;;6.05;3.15;;;;;;;24.20;37.49;100988.53;5015212;28;20030;-57
2023/04/14 21:27:40;;;;;;;6.18;3.65;;;;;;;24.18;37.51;100994.59;5015199;28;20029;-58
2023/04/14 21:30:09;;;;;;;7.38;3.83;;;;;;;24.16;37.53;100999.81;5014752;28;20416;-53
2023/04/14 21:32:38;;;;;;;7.57;3.63;;;;;;;24.19;37.39;101010.34;5014763;28;20029;-49
2023/04/14 21:35:08;;;;;;;7.20;4.05;;;;;;;24.17;37.34;101017.31;5015010;28;20385;-52
2023/04/14 21:37:37;;;;;;;8.55;3.42;;;;;;;24.17;37.44;101022.56;5014916;28;20125;-52
2023/04/14 21:40:05;;;;;;;6.18;3.20;;;;;;;24.18;37.25;101021.69;5014758;28;20091;-51
2023/04/14 21:42:34;;;;;;;7.00;3.28;;;;;;;24.16;37.40;101033.03;5015154;28;20026;-53
2023/04/14 21:45:05;;;;;;;8.52;3.05;;;;;;;24.13;37.37;101039.09;5015159;28;20419;-53
2023/04/14 21:47:33;;;;;;;5.70;2.67;;;;;;;24.14;37.49;101037.38;5014921;28;20116;-48
2023/04/14 21:50:02;;;;;;;5.63;3.22;;;;;;;24.19;37.51;101035.66;5014451;28;20029;-48
2023/04/14 21:52:31;;;;;;;5.22;2.35;;;;;;;24.14;37.50;101046.09;4997821;28;20029;-50
2023/04/14 21:55:00;;;;;;;5.75;2.83;;;;;;;24.20;37.59;101046.19;5015095;28;20022;-52
2023/04/14 21:57:29;;;;;;;7.75;3.20;;;;;;;24.11;37.64;101052.19;5014692;28;20041;-53
2023/04/14 21:59:57;;;;;;;5.15;2.22;;;;;;;24.09;37.53;101058.25;5014145;28;20081;-52
2023/04/14 22:02:26;;;;;;;5.95;2.50;;;;;;;24.07;37.75;101063.47;5014583;28;20044;-50
2023/04/14 22:04:55;;;;;;;3.85;1.88;;;;;;;24.05;37.56;101067.81;5014152;28;20030;-54
2023/04/14 22:07:23;;;;;;;6.13;2.78;;;;;;;24.04;37.36;101066.06;5014462;28;20034;-49
2023/04/14 22:09:52;;;;;;;4.07;2.33;;;;;;;24.03;37.57;101058.19;5014151;28;20446;-52
2023/04/14 22:12:21;;;;;;;6.22;2.63;;;;;;;24.08;37.54;101070.50;4997401;28;20046;-49
2023/04/14 22:14:51;;;;;;;4.15;2.15;;;;;;;24.03;37.54;101077.41;5014579;28;20032;-53
2023/04/14 22:17:20;;;;;;;3.78;2.05;;;;;;;24.01;37.75;101075.63;5013495;28;20034;-54
2023/04/14 22:19:48;;;;;;;3.67;2.00;;;;;;;23.99;37.59;101080.84;5014218;28;20034;-57
2023/04/14 22:22:17;;;;;;;4.07;2.30;;;;;;;23.97;37.40;101088.66;5014131;28;20034;-55
2023/04/14 22:24:45;;;;;;;5.85;2.83;;;;;;;23.95;37.80;101087.72;5014139;28;20034;-51
2023/04/14 22:27:14;;;;;;;6.30;2.85;;;;;;;23.96;37.45;101086.00;5013767;28;20479;-52
2023/04/14 22:29:43;;;;;;;5.40;2.63;;;;;;;23.93;37.38;101081.56;5013740;28;20433;-48
2023/04/14 22:32:11;;;;;;;6.10;2.63;;;;;;;23.92;37.71;101092.91;5013928;28;20069;-58
2023/04/14 22:34:40;;;;;;;5.78;2.28;;;;;;;23.92;37.70;101086.81;5013558;28;20064;-48
2023/04/14 22:37:09;;;;;;;4.50;2.40;;;;;;;23.86;37.63;101094.56;4996082;28;20033;-57
2023/04/14 22:39:37;;;;;;;3.88;2.45;;;;;;;23.84;37.94;101102.41;5013895;28;20085;-58
2023/04/14 22:42:06;;;;;;;6.05;2.40;;;;;;;23.80;37.43;101098.88;5013440;28;20052;-57
2023/04/14 22:44:35;;;;;;;4.20;2.40;;;;;;;23.78;37.80;101099.69;5013774;28;20041;-52
2023/04/14 22:47:04;;;;;;;7.88;2.70;;;;;;;23.79;37.72;101110.22;4996280;28;20033;-49
2023/04/14 22:49:33;;;;;;;5.75;2.55;;;;;;;23.78;37.50;101112.78;5014173;28;20037;-48
2023/04/14 22:52:01;;;;;;;7.65;2.42;;;;;;;23.78;37.82;101113.69;5013675;28;20033;-48
2023/04/14 22:54:30;;;;;;;3.95;2.15;;;;;;;23.79;37.81;101125.03;5013753;28;20034;-57
2023/04/14 22:56:58;;;;;;;5.10;2.20;;;;;;;23.77;37.44;101137.22;5013844;28;20029;-52
2023/04/14 22:59:27;;;;;;;3.28;2.10;;;;;;;23.74;37.49;101145.91;4996340;28;20475;-48
2023/04/14 23:01:55;;;;;;;4.30;1.92;;;;;;;23.74;37.56;101145.03;5013389;28;20044;-48